Mason City Municipal Airport
KMCW : now visible

Airfield :











YOU CAN JOIN US ON...

 
LOGIN :

Register | Disclaimer

   EN    FR    IT 

 









Legend :    VFR   Marginal VFR   IFR   Intensive IFR   Very Intensive IFR
Visi :
Ceiling :
>= 8 km
>= 3000ft
5 to 8 km
1000 to 3000 ft
1500m to 5 km
500 to 1000 ft
800 to 1500m
200 to 500 ft
< 800m
< 200 ft
Symbols :   Thunderstorms  Fog  Heavy snow  Heavy precipitations  Wind > 20 kt






- Airport Elevation : 1213 ft


KMCW - Mason City Municipal

CURRENT METAR :
  • 141653Z AUTO 28008KT 10SM SCT016 M04/M09 A3030 RMK AO2 SLP272 T10391089

EXPIRED METARs :
  • 141553Z AUTO 31010KT 10SM FEW023 M05/M09 A3029 RMK AO2 SLP269 T10501089

TAF KMCW
Valid from the 14 at 17:00 until the 15 at 12:00 UTC


141645Z 1417/1512 31008KT P6SM SCT025
FM141800 29007KT P6SM SCT150
FM142000 27007KT P6SM FEW250
FM151100 VRB03KT P6SM BKN080



MET'MAP, your aeronautical weather chart ! - Copyright ORBIFLY December 2007 - Disclaimer

ORBIFLY MET'MAP TEAM :

Programming & Development : Alexandra Zaïnal
Concept & Development : Baudouin d'Aumeries
Co-Development & Prog : Marc-Olivier Méhu
Technical & hardware support : Manuel Goepfert

Contact : metmap@orbifly.com




SOURCES & CREDITS :

   NOAA       Earth
Advisory